Gran Canaria, Spain
Current Conditions -  °F | °C
As of 4:30 PM on Tuesday 27 Jan 2015 (Local Time) from GCLP Reporting Station
Few Clouds Few Clouds  
Wind Chill: 66°   Ceiling: Unl
Heat Index: 66°   Visibility: 6mi
Dew Point: 50°   Wind: 25mph
Humidity: 56%   Direction: 20°NNE
Pressure: 30.33"   Gusts: NA
Location:  28.14°N, 15.43°W
Report Text: GCLP 271630Z 02022KT 9999 FEW030 19/10 Q1027 NOSIG
Loading
Personal Weather Stations






























Interactive Weather Map New forecast layout! Learn more

10-Day Weather Forecast

Advertisements
Track Severe Weather on mobile